Time;durP1;ratioP1;P1;durP2;ratioP2;P2;SDS_P1;SDS_P2;PMS_P1;PMS_P2;Temp;Humidity;BMP_temperature;BMP_pressure;BME280_temperature;BME280_humidity;BME280_pressure;Samples;Min_cycle;Max_cycle;Signal;HPM_P1;HPM_P2
2023/03/06 00:01:28;;;;;;;14.60;11.83;;;;;;;;;;4914653;29;20485;-77
2023/03/06 00:03:54;;;;;;;16.87;12.50;;;;;;;;;;4936196;29;20463;-78
2023/03/06 00:06:20;;;;;;;15.73;10.80;;;;;;;;;;4942975;28;22312;-83
2023/03/06 00:08:46;;;;;;;12.83;10.50;;;;;;;;;;4945681;29;20455;-87
2023/03/06 00:11:14;;;;;;;12.33;10.97;;;;;;;;;;4948678;28;20565;-77
2023/03/06 00:13:40;;;;;;;15.57;11.70;;;;;;;;;;4921895;29;20485;-75
2023/03/06 00:16:06;;;;;;;13.93;11.30;;;;;;;;;;4917410;29;20493;-77
2023/03/06 00:18:33;;;;;;;15.03;12.03;;;;;;;;;;4924312;29;20446;-79
2023/03/06 00:20:59;;;;;;;12.77;10.17;;;;;;;;;;4933165;29;20545;-77
2023/03/06 00:23:26;;;;;;;16.97;13.70;;;;;;;;;;4928772;29;20428;-77
2023/03/06 00:25:52;;;;;;;17.00;14.00;;;;;;;;;;4936437;29;20988;-77
2023/03/06 00:28:18;;;;;;;15.98;11.40;;;;;;;;;;4937265;29;20439;-76
2023/03/06 00:30:46;;;;;;;15.30;12.57;;;;;;;;;;4930585;29;20217;-76
2023/03/06 00:33:12;;;;;;;20.50;14.40;;;;;;;;;;4918648;29;20521;-75
2023/03/06 00:35:39;;;;;;;17.80;14.00;;;;;;;;;;4935304;28;20444;-77
2023/03/06 00:38:05;;;;;;;14.60;11.80;;;;;;;;;;4917266;29;20856;-77
2023/03/06 00:40:31;;;;;;;14.30;11.90;;;;;;;;;;4934563;28;20518;-76
2023/03/06 00:42:57;;;;;;;12.47;11.00;;;;;;;;;;4942457;29;21154;-76
2023/03/06 00:45:23;;;;;;;13.93;12.43;;;;;;;;;;4938163;29;20399;-76
2023/03/06 00:47:49;;;;;;;14.70;11.90;;;;;;;;;;4911043;29;20520;-78
2023/03/06 00:50:15;;;;;;;14.17;12.67;;;;;;;;;;4941057;29;20780;-77
2023/03/06 00:52:41;;;;;;;14.90;10.93;;;;;;;;;;4936044;28;20493;-77
2023/03/06 00:55:10;;;;;;;12.10;10.80;;;;;;;;;;4942136;28;20443;-75
2023/03/06 00:57:36;;;;;;;13.33;9.43;;;;;;;;;;4919112;29;20833;-75
2023/03/06 01:00:03;;;;;;;11.57;10.48;;;;;;;;;;4943456;28;20405;-77
2023/03/06 01:02:29;;;;;;;10.83;9.73;;;;;;;;;;4935904;28;20195;-75
2023/03/06 01:04:55;;;;;;;12.70;9.98;;;;;;;;;;4942596;29;20450;-76
2023/03/06 01:07:21;;;;;;;12.17;10.63;;;;;;;;;;4939978;29;20190;-77
2023/03/06 01:09:47;;;;;;;12.03;11.00;;;;;;;;;;4941747;29;20467;-76
2023/03/06 01:12:13;;;;;;;12.13;10.83;;;;;;;;;;4938568;29;20916;-76
2023/03/06 01:14:39;;;;;;;12.80;11.50;;;;;;;;;;4941803;29;20573;-78
2023/03/06 01:17:06;;;;;;;13.27;11.40;;;;;;;;;;4938258;28;21051;-77
2023/03/06 01:19:32;;;;;;;12.33;9.87;;;;;;;;;;4940977;29;20515;-76
2023/03/06 01:21:58;;;;;;;11.18;9.98;;;;;;;;;;4936803;28;20428;-77
2023/03/06 01:24:24;;;;;;;12.63;10.37;;;;;;;;;;4943116;29;20246;-76
2023/03/06 01:26:50;;;;;;;10.53;9.20;;;;;;;;;;4948194;29;20459;-77
2023/03/06 01:29:16;;;;;;;17.63;11.47;;;;;;;;;;4939886;29;20501;-76
2023/03/06 01:31:42;;;;;;;16.17;12.67;;;;;;;;;;4939672;28;20438;-76
2023/03/06 01:34:08;;;;;;;17.97;12.20;;;;;;;;;;4938930;29;20448;-77
2023/03/06 01:36:34;;;;;;;13.70;11.00;;;;;;;;;;4915938;29;20487;-76
2023/03/06 01:39:02;;;;;;;19.73;14.07;;;;;;;;;;4940300;29;20488;-75
2023/03/06 01:41:29;;;;;;;15.53;13.23;;;;;;;;;;4937502;28;20830;-75
2023/03/06 01:43:55;;;;;;;19.00;15.00;;;;;;;;;;4941946;29;20929;-76
2023/03/06 01:46:27;;;;;;;17.33;12.03;;;;;;;;;;4939677;29;20436;-78
2023/03/06 01:48:58;;;;;;;14.93;10.90;;;;;;;;;;4941294;29;20610;-78
2023/03/06 01:51:32;;;;;;;17.98;11.70;;;;;;;;;;4940400;28;20459;-77
2023/03/06 01:54:00;;;;;;;17.73;13.47;;;;;;;;;;4942296;29;20194;-76
2023/03/06 01:56:26;;;;;;;18.50;13.33;;;;;;;;;;4940842;28;21127;-76
2023/03/06 01:58:52;;;;;;;21.30;16.47;;;;;;;;;;4941517;29;20484;-77
2023/03/06 02:01:19;;;;;;;21.93;15.67;;;;;;;;;;4940448;29;20457;-78
2023/03/06 02:03:46;;;;;;;17.70;12.87;;;;;;;;;;4941304;29;20430;-78
2023/03/06 02:06:12;;;;;;;21.93;16.10;;;;;;;;;;4922154;29;20453;-77
2023/03/06 02:08:39;;;;;;;21.23;13.30;;;;;;;;;;4922892;29;21001;-78
2023/03/06 02:11:08;;;;;;;25.90;15.73;;;;;;;;;;4922331;29;20485;-77
2023/03/06 02:13:34;;;;;;;21.40;12.97;;;;;;;;;;4939806;29;20457;-77
2023/03/06 02:16:01;;;;;;;24.20;16.30;;;;;;;;;;4941011;28;20452;-78
2023/03/06 02:18:27;;;;;;;24.37;18.07;;;;;;;;;;4920825;29;20940;-76
2023/03/06 02:20:56;;;;;;;26.23;17.30;;;;;;;;;;4939407;29;20471;-77
2023/03/06 02:23:28;;;;;;;24.67;16.83;;;;;;;;;;4932630;28;20611;-76
2023/03/06 02:25:54;;;;;;;18.73;13.20;;;;;;;;;;4936774;29;20529;-76
2023/03/06 02:28:22;;;;;;;17.97;13.70;;;;;;;;;;4938100;28;20508;-76
2023/03/06 02:30:49;;;;;;;21.83;15.10;;;;;;;;;;4938724;28;21018;-76
2023/03/06 02:33:17;;;;;;;28.40;18.70;;;;;;;;;;4920154;29;20513;-76
2023/03/06 02:35:45;;;;;;;28.17;18.37;;;;;;;;;;4923182;29;20516;-77
2023/03/06 02:38:14;;;;;;;28.90;18.47;;;;;;;;;;4939219;29;20465;-76
2023/03/06 02:40:41;;;;;;;21.63;15.75;;;;;;;;;;4939137;29;20440;-76
2023/03/06 02:43:08;;;;;;;23.70;15.50;;;;;;;;;;4938533;29;20697;-76
2023/03/06 02:45:45;;;;;;;27.00;18.10;;;;;;;;;;4936159;29;20462;-76
2023/03/06 02:48:12;;;;;;;27.40;18.77;;;;;;;;;;4937619;29;20282;-77
2023/03/06 02:50:39;;;;;;;26.93;17.43;;;;;;;;;;4936859;28;20472;-77
2023/03/06 02:53:06;;;;;;;28.23;18.30;;;;;;;;;;4939399;29;20434;-77
2023/03/06 02:55:32;;;;;;;24.75;17.27;;;;;;;;;;4938065;29;20443;-77
2023/03/06 02:57:58;;;;;;;33.10;20.07;;;;;;;;;;4937712;28;20255;-77
2023/03/06 03:00:25;;;;;;;23.50;13.77;;;;;;;;;;4937987;29;20469;-77
2023/03/06 03:02:51;;;;;;;22.50;14.40;;;;;;;;;;4937207;28;21188;-77
2023/03/06 03:05:17;;;;;;;30.17;19.07;;;;;;;;;;4941123;29;20460;-78
2023/03/06 03:07:43;;;;;;;29.55;17.83;;;;;;;;;;4937442;28;20432;-76
2023/03/06 03:10:09;;;;;;;24.87;17.50;;;;;;;;;;4940515;29;20917;-76
2023/03/06 03:12:35;;;;;;;26.83;17.97;;;;;;;;;;4935356;29;20515;-76
2023/03/06 03:15:01;;;;;;;30.80;19.92;;;;;;;;;;4940161;29;20423;-77
2023/03/06 03:17:27;;;;;;;30.00;18.57;;;;;;;;;;4936179;29;20210;-77
2023/03/06 03:19:53;;;;;;;28.90;19.80;;;;;;;;;;4940544;29;20445;-77
2023/03/06 03:22:20;;;;;;;30.77;20.80;;;;;;;;;;4917758;29;20460;-77
2023/03/06 03:24:46;;;;;;;33.67;17.10;;;;;;;;;;4941105;29;20414;-77
2023/03/06 03:27:12;;;;;;;27.13;19.57;;;;;;;;;;4936106;29;21005;-76
2023/03/06 03:29:38;;;;;;;29.85;20.40;;;;;;;;;;4938577;28;20472;-77
2023/03/06 03:32:05;;;;;;;27.33;19.45;;;;;;;;;;4939720;28;20198;-77
2023/03/06 03:34:31;;;;;;;30.73;18.33;;;;;;;;;;4936318;29;20197;-76
2023/03/06 03:36:57;;;;;;;26.03;17.60;;;;;;;;;;4936671;28;20553;-77
2023/03/06 03:39:23;;;;;;;25.20;17.90;;;;;;;;;;4937338;28;20446;-76
2023/03/06 03:41:49;;;;;;;24.37;17.03;;;;;;;;;;4937741;29;20198;-76
2023/03/06 03:44:15;;;;;;;22.10;16.43;;;;;;;;;;4937904;28;20424;-76
2023/03/06 03:46:41;;;;;;;22.50;14.80;;;;;;;;;;4937155;29;20446;-77
2023/03/06 03:49:07;;;;;;;16.80;12.07;;;;;;;;;;4939837;28;20454;-76
2023/03/06 03:51:33;;;;;;;14.47;11.00;;;;;;;;;;4936445;29;21000;-76
2023/03/06 03:53:59;;;;;;;14.50;11.40;;;;;;;;;;4938310;29;20454;-76
2023/03/06 03:56:26;;;;;;;15.07;11.57;;;;;;;;;;4936368;28;20207;-76
2023/03/06 03:58:52;;;;;;;16.33;11.90;;;;;;;;;;4939583;28;20452;-77
2023/03/06 04:01:18;;;;;;;16.90;12.53;;;;;;;;;;4938196;29;20202;-77
2023/03/06 04:03:44;;;;;;;14.80;12.30;;;;;;;;;;4936392;29;20424;-77
2023/03/06 04:06:10;;;;;;;13.97;11.80;;;;;;;;;;4938032;29;20527;-77
2023/03/06 04:08:36;;;;;;;19.10;13.07;;;;;;;;;;4936986;28;21210;-78
2023/03/06 04:11:02;;;;;;;17.47;12.20;;;;;;;;;;4936889;29;20447;-77
2023/03/06 04:13:29;;;;;;;17.23;12.37;;;;;;;;;;4939815;28;20461;-83
2023/03/06 04:15:55;;;;;;;13.13;10.00;;;;;;;;;;4947115;28;20417;-84
2023/03/06 04:18:22;;;;;;;16.00;12.27;;;;;;;;;;4937649;29;20453;-75
2023/03/06 04:20:48;;;;;;;17.60;12.70;;;;;;;;;;4937168;29;20436;-75
2023/03/06 04:23:15;;;;;;;15.73;12.90;;;;;;;;;;4922069;29;20421;-76
2023/03/06 04:25:40;;;;;;;21.23;14.93;;;;;;;;;;4939456;29;20851;-76
2023/03/06 04:28:06;;;;;;;17.83;15.07;;;;;;;;;;4939482;28;20482;-76
2023/03/06 04:30:36;;;;;;;21.80;14.27;;;;;;;;;;4934963;29;20823;-77
2023/03/06 04:33:02;;;;;;;21.27;13.37;;;;;;;;;;4940112;29;20782;-77
2023/03/06 04:35:28;;;;;;;24.90;15.17;;;;;;;;;;4935193;29;20441;-76
2023/03/06 04:37:54;;;;;;;22.73;14.27;;;;;;;;;;4940670;29;20949;-77
2023/03/06 04:40:21;;;;;;;21.03;15.47;;;;;;;;;;4936288;29;20553;-76
2023/03/06 04:42:47;;;;;;;22.10;16.53;;;;;;;;;;4939167;28;20557;-75
2023/03/06 04:45:14;;;;;;;22.93;16.43;;;;;;;;;;4935828;29;20437;-77
2023/03/06 04:47:40;;;;;;;20.97;15.37;;;;;;;;;;4937529;29;20501;-78
2023/03/06 04:50:06;;;;;;;23.70;15.93;;;;;;;;;;4933301;29;20447;-75
2023/03/06 04:52:33;;;;;;;24.33;16.30;;;;;;;;;;4937437;29;20499;-77
2023/03/06 04:54:59;;;;;;;27.43;17.50;;;;;;;;;;4917945;29;20553;-77
2023/03/06 04:57:25;;;;;;;28.40;17.80;;;;;;;;;;4953738;29;20450;-85
2023/03/06 04:59:51;;;;;;;25.13;18.57;;;;;;;;;;4943687;29;20456;-87
2023/03/06 05:02:17;;;;;;;28.60;18.07;;;;;;;;;;4939225;28;21160;-76
2023/03/06 05:04:43;;;;;;;24.60;14.80;;;;;;;;;;4935481;28;20525;-77
2023/03/06 05:07:10;;;;;;;25.83;17.83;;;;;;;;;;4925309;29;20428;-77
2023/03/06 05:09:36;;;;;;;26.20;18.03;;;;;;;;;;4937212;28;20766;-77
2023/03/06 05:12:03;;;;;;;25.40;16.87;;;;;;;;;;4941377;28;20464;-77
2023/03/06 05:14:29;;;;;;;26.60;17.43;;;;;;;;;;4930436;28;20465;-75
2023/03/06 05:16:55;;;;;;;25.37;16.90;;;;;;;;;;4938971;28;20510;-77
2023/03/06 05:19:21;;;;;;;30.13;18.37;;;;;;;;;;4936734;29;20461;-78
2023/03/06 05:21:47;;;;;;;28.83;18.97;;;;;;;;;;4951589;29;20461;-83
2023/03/06 05:24:13;;;;;;;22.43;14.20;;;;;;;;;;4934343;29;20525;-75
2023/03/06 05:26:39;;;;;;;20.93;16.13;;;;;;;;;;4942481;28;20468;-75
2023/03/06 05:29:06;;;;;;;25.23;16.65;;;;;;;;;;4934374;29;20439;-76
2023/03/06 05:31:31;;;;;;;25.37;17.30;;;;;;;;;;4941173;28;20667;-77
2023/03/06 05:33:59;;;;;;;32.87;18.83;;;;;;;;;;4940324;29;20492;-76
2023/03/06 05:36:25;;;;;;;29.17;18.90;;;;;;;;;;4941386;29;20928;-77
2023/03/06 05:38:51;;;;;;;23.13;16.40;;;;;;;;;;4939234;29;20461;-76
2023/03/06 05:41:17;;;;;;;25.50;16.63;;;;;;;;;;4934427;28;21098;-76
2023/03/06 05:43:43;;;;;;;26.70;15.97;;;;;;;;;;4935368;29;20494;-77
2023/03/06 05:46:10;;;;;;;28.70;17.70;;;;;;;;;;4944623;29;20480;-78
2023/03/06 05:48:36;;;;;;;30.13;17.33;;;;;;;;;;4943318;29;20463;-77
2023/03/06 05:51:03;;;;;;;27.10;16.10;;;;;;;;;;4931343;28;20567;-77
2023/03/06 05:53:30;;;;;;;30.97;18.93;;;;;;;;;;4941747;29;20553;-78
2023/03/06 05:55:57;;;;;;;28.60;18.83;;;;;;;;;;4938405;29;20929;-77
2023/03/06 05:58:23;;;;;;;33.67;18.10;;;;;;;;;;4941662;28;20459;-78
2023/03/06 06:00:49;;;;;;;29.90;18.57;;;;;;;;;;4944711;28;20454;-79
2023/03/06 06:03:15;;;;;;;27.00;18.57;;;;;;;;;;4936023;29;20457;-78
2023/03/06 06:05:41;;;;;;;30.70;17.50;;;;;;;;;;4945031;29;20844;-79
2023/03/06 06:08:07;;;;;;;28.10;17.03;;;;;;;;;;4935192;29;20421;-78
2023/03/06 06:10:33;;;;;;;27.37;15.60;;;;;;;;;;4939222;29;20539;-77
2023/03/06 06:12:58;;;;;;;28.13;16.70;;;;;;;;;;4943963;29;20539;-76
2023/03/06 06:15:27;;;;;;;30.67;14.77;;;;;;;;;;4935683;29;20478;-77
2023/03/06 06:17:53;;;;;;;26.17;16.25;;;;;;;;;;4924728;29;20454;-77
2023/03/06 06:20:20;;;;;;;25.17;14.45;;;;;;;;;;4937410;28;20327;-80
2023/03/06 06:22:45;;;;;;;25.85;16.10;;;;;;;;;;4912673;29;20194;-78
2023/03/06 06:25:12;;;;;;;29.87;17.50;;;;;;;;;;4933787;29;20203;-77
2023/03/06 06:27:38;;;;;;;30.20;17.47;;;;;;;;;;4935997;28;20564;-78
2023/03/06 06:30:05;;;;;;;29.73;17.07;;;;;;;;;;4929581;29;20570;-77
2023/03/06 06:32:31;;;;;;;27.70;17.33;;;;;;;;;;4936900;29;21012;-77
2023/03/06 06:34:57;;;;;;;27.53;15.10;;;;;;;;;;4911138;29;20191;-78
2023/03/06 06:37:24;;;;;;;28.97;16.67;;;;;;;;;;4937504;28;20464;-78
2023/03/06 06:39:50;;;;;;;23.07;15.90;;;;;;;;;;4941052;29;20510;-78
2023/03/06 06:42:20;;;;;;;27.20;16.57;;;;;;;;;;4921748;29;20429;-78
2023/03/06 06:44:46;;;;;;;19.10;13.40;;;;;;;;;;4941078;28;20474;-79
2023/03/06 06:47:12;;;;;;;19.60;13.27;;;;;;;;;;4943968;29;20445;-76
2023/03/06 06:49:38;;;;;;;22.30;12.60;;;;;;;;;;4938049;28;20745;-78
2023/03/06 06:52:05;;;;;;;13.27;9.67;;;;;;;;;;4926241;29;20463;-78
2023/03/06 06:54:32;;;;;;;17.03;11.10;;;;;;;;;;4939776;29;20454;-78
2023/03/06 06:56:58;;;;;;;20.87;13.87;;;;;;;;;;4944379;29;20937;-77
2023/03/06 06:59:24;;;;;;;20.93;13.13;;;;;;;;;;4937917;29;20448;-75
2023/03/06 07:01:50;;;;;;;20.73;13.70;;;;;;;;;;4946368;29;20555;-76
2023/03/06 07:04:17;;;;;;;22.30;13.87;;;;;;;;;;4937919;29;20535;-76
2023/03/06 07:06:43;;;;;;;22.43;13.47;;;;;;;;;;4942371;29;20432;-77
2023/03/06 07:09:09;;;;;;;24.33;14.40;;;;;;;;;;4920863;29;20442;-77
2023/03/06 07:11:36;;;;;;;17.17;13.02;;;;;;;;;;4939713;29;20466;-77
2023/03/06 07:14:02;;;;;;;19.57;12.70;;;;;;;;;;4937967;28;20198;-79
2023/03/06 07:16:28;;;;;;;24.43;13.70;;;;;;;;;;4938668;29;20971;-77
2023/03/06 07:18:54;;;;;;;26.60;14.20;;;;;;;;;;4932771;29;20548;-73
2023/03/06 07:21:20;;;;;;;24.60;14.07;;;;;;;;;;4935224;29;20443;-77
2023/03/06 07:23:46;;;;;;;28.73;14.37;;;;;;;;;;4926015;29;20425;-78
2023/03/06 07:26:12;;;;;;;31.80;16.47;;;;;;;;;;4935954;29;20946;-77
2023/03/06 07:28:38;;;;;;;23.67;15.10;;;;;;;;;;4931937;29;20518;-79
2023/03/06 07:31:08;;;;;;;23.90;13.83;;;;;;;;;;4938085;29;20448;-76
2023/03/06 07:33:34;;;;;;;21.23;13.80;;;;;;;;;;4930520;28;20500;-77
2023/03/06 07:36:00;;;;;;;30.33;15.10;;;;;;;;;;4921411;29;20935;-79
2023/03/06 07:38:26;;;;;;;29.80;17.37;;;;;;;;;;4938956;29;20417;-78
2023/03/06 07:40:52;;;;;;;29.37;17.57;;;;;;;;;;4931915;28;20463;-77
2023/03/06 07:43:18;;;;;;;28.70;15.20;;;;;;;;;;4935456;28;20441;-79
2023/03/06 07:45:45;;;;;;;27.93;16.50;;;;;;;;;;4916627;29;20791;-78
2023/03/06 07:48:11;;;;;;;23.70;12.07;;;;;;;;;;4937150;29;20910;-77
2023/03/06 07:50:37;;;;;;;26.07;16.30;;;;;;;;;;4934607;29;20514;-77
2023/03/06 07:53:04;;;;;;;23.50;16.07;;;;;;;;;;4938641;29;20551;-78
2023/03/06 07:55:30;;;;;;;28.25;18.98;;;;;;;;;;4936711;29;20508;-78
2023/03/06 07:57:55;;;;;;;27.50;15.53;;;;;;;;;;4938186;29;20190;-77
2023/03/06 08:00:22;;;;;;;27.17;15.73;;;;;;;;;;4930436;29;20455;-77
2023/03/06 08:02:48;;;;;;;23.50;13.50;;;;;;;;;;4934169;29;20471;-74
2023/03/06 08:05:15;;;;;;;24.43;15.20;;;;;;;;;;4916149;29;20569;-76
2023/03/06 08:07:42;;;;;;;21.00;12.27;;;;;;;;;;4934871;28;20941;-74
2023/03/06 08:10:08;;;;;;;22.02;14.50;;;;;;;;;;4935363;29;20480;-76
2023/03/06 08:12:34;;;;;;;27.17;15.37;;;;;;;;;;4915963;29;21029;-78
2023/03/06 08:15:00;;;;;;;19.87;13.63;;;;;;;;;;4933668;28;20450;-77
2023/03/06 08:17:26;;;;;;;23.33;12.70;;;;;;;;;;4936880;29;20459;-78
2023/03/06 08:19:52;;;;;;;20.33;12.90;;;;;;;;;;4934760;29;20457;-77
2023/03/06 08:22:18;;;;;;;20.43;12.63;;;;;;;;;;4915333;29;20507;-77
2023/03/06 08:24:44;;;;;;;19.85;12.88;;;;;;;;;;4931044;28;20453;-81
2023/03/06 08:27:10;;;;;;;20.30;13.83;;;;;;;;;;4931831;29;20646;-79
2023/03/06 08:29:36;;;;;;;20.20;13.17;;;;;;;;;;4939126;29;20424;-79
2023/03/06 08:32:02;;;;;;;23.30;14.10;;;;;;;;;;4934447;28;20476;-78
2023/03/06 08:34:28;;;;;;;15.40;10.20;;;;;;;;;;4913152;29;20489;-78
2023/03/06 08:36:54;;;;;;;21.80;14.20;;;;;;;;;;4933896;29;20446;-79
2023/03/06 08:39:22;;;;;;;19.90;11.63;;;;;;;;;;4936843;28;21207;-79
2023/03/06 08:41:48;;;;;;;18.00;11.80;;;;;;;;;;4935136;29;20951;-78
2023/03/06 08:44:14;;;;;;;24.27;15.03;;;;;;;;;;4939192;29;20428;-79
2023/03/06 08:46:40;;;;;;;24.40;15.27;;;;;;;;;;4934802;29;20477;-80
2023/03/06 08:49:06;;;;;;;20.43;12.63;;;;;;;;;;4915670;29;20448;-79
2023/03/06 08:51:32;;;;;;;23.20;13.53;;;;;;;;;;4933179;28;20449;-78
2023/03/06 08:53:59;;;;;;;27.33;15.73;;;;;;;;;;4940701;29;20433;-79
2023/03/06 08:56:26;;;;;;;26.83;14.40;;;;;;;;;;4934104;28;20868;-78
2023/03/06 08:58:53;;;;;;;26.80;14.83;;;;;;;;;;4937686;29;20516;-77
2023/03/06 09:01:21;;;;;;;27.30;15.20;;;;;;;;;;4934443;28;20437;-78
2023/03/06 09:03:47;;;;;;;26.80;14.57;;;;;;;;;;4926073;29;20421;-79
2023/03/06 09:06:13;;;;;;;25.33;16.70;;;;;;;;;;4937433;28;20451;-79
2023/03/06 09:08:41;;;;;;;33.10;17.50;;;;;;;;;;4942154;28;20457;-77
2023/03/06 09:11:08;;;;;;;35.20;20.63;;;;;;;;;;4935706;29;20585;-76
2023/03/06 09:13:34;;;;;;;39.67;18.70;;;;;;;;;;4941024;29;20440;-76
2023/03/06 09:16:00;;;;;;;33.80;18.75;;;;;;;;;;4935513;29;20927;-77
2023/03/06 09:18:28;;;;;;;29.07;17.23;;;;;;;;;;4939706;28;20190;-75
2023/03/06 09:20:54;;;;;;;35.10;19.80;;;;;;;;;;4926307;28;20612;-76
2023/03/06 09:23:20;;;;;;;35.03;20.30;;;;;;;;;;4936977;29;20500;-77
2023/03/06 09:25:50;;;;;;;33.87;17.37;;;;;;;;;;4935342;29;20421;-76
2023/03/06 09:28:16;;;;;;;35.03;20.57;;;;;;;;;;4939158;28;20462;-75
2023/03/06 09:30:43;;;;;;;30.73;18.60;;;;;;;;;;4943702;29;20452;-74
2023/03/06 09:33:09;;;;;;;26.53;15.60;;;;;;;;;;4937482;28;20941;-75
2023/03/06 09:35:35;;;;;;;31.13;20.43;;;;;;;;;;4938497;28;20415;-75
2023/03/06 09:38:01;;;;;;;37.83;23.00;;;;;;;;;;4921149;29;20436;-76
2023/03/06 09:40:37;;;;;;;44.43;25.43;;;;;;;;;;4956109;28;20479;-75
2023/03/06 09:43:03;;;;;;;41.47;23.33;;;;;;;;;;4940925;29;20457;-76
2023/03/06 09:45:29;;;;;;;36.60;22.57;;;;;;;;;;4944004;28;20832;-75
2023/03/06 09:48:00;;;;;;;41.10;20.97;;;;;;;;;;4942531;28;20439;-75
2023/03/06 09:50:58;;;;;;;28.47;14.23;;;;;;;;;;4943115;28;20436;-76
2023/03/06 09:53:42;;;;;;;29.33;17.60;;;;;;;;;;4908981;29;20468;-78
2023/03/06 09:56:21;;;;;;;30.53;16.37;;;;;;;;;;4932082;29;20554;-77
2023/03/06 09:58:57;;;;;;;32.90;18.63;;;;;;;;;;4937281;28;20424;-78
2023/03/06 10:01:28;;;;;;;30.17;17.03;;;;;;;;;;4925845;29;20577;-77
2023/03/06 10:04:10;;;;;;;35.23;19.77;;;;;;;;;;4936345;29;21002;-77
2023/03/06 10:06:54;;;;;;;23.60;15.10;;;;;;;;;;4938572;28;21068;-78
2023/03/06 10:09:26;;;;;;;30.17;18.33;;;;;;;;;;4940652;29;20600;-78
2023/03/06 10:11:58;;;;;;;37.00;22.30;;;;;;;;;;4935614;28;20470;-76
2023/03/06 10:14:36;;;;;;;33.50;19.80;;;;;;;;;;4935929;29;20436;-76
2023/03/06 10:17:03;;;;;;;33.70;21.10;;;;;;;;;;4935263;29;20612;-79
2023/03/06 10:19:38;;;;;;;29.80;20.77;;;;;;;;;;4941501;29;20410;-78
2023/03/06 10:22:20;;;;;;;30.50;21.20;;;;;;;;;;4916311;29;20548;-78
2023/03/06 10:24:49;;;;;;;34.60;19.03;;;;;;;;;;4919322;29;21188;-79
2023/03/06 10:27:30;;;;;;;37.50;22.27;;;;;;;;;;4909619;28;20436;-78
2023/03/06 10:30:03;;;;;;;34.97;19.27;;;;;;;;;;4916468;29;21113;-76
2023/03/06 10:32:40;;;;;;;34.33;19.73;;;;;;;;;;4937158;29;21262;-76
2023/03/06 10:35:12;;;;;;;24.67;15.67;;;;;;;;;;4942125;29;20418;-77
2023/03/06 10:37:38;;;;;;;32.23;20.93;;;;;;;;;;4937321;29;20433;-77
2023/03/06 10:40:12;;;;;;;36.63;21.83;;;;;;;;;;4942115;29;20452;-77
2023/03/06 10:42:39;;;;;;;24.40;16.87;;;;;;;;;;4936314;28;20487;-78
2023/03/06 10:45:13;;;;;;;25.93;18.33;;;;;;;;;;4922001;28;20470;-77
2023/03/06 10:47:40;;;;;;;25.43;17.40;;;;;;;;;;4937312;28;21385;-76
2023/03/06 10:50:16;;;;;;;26.50;18.52;;;;;;;;;;4944679;28;20432;-79
2023/03/06 10:52:42;;;;;;;23.37;17.63;;;;;;;;;;4913890;29;20229;-77
2023/03/06 10:55:23;;;;;;;29.67;17.60;;;;;;;;;;4922749;29;20445;-78
2023/03/06 10:57:49;;;;;;;25.47;17.10;;;;;;;;;;4937042;28;20494;-77
2023/03/06 11:00:25;;;;;;;24.70;16.63;;;;;;;;;;4936773;28;20450;-78
2023/03/06 11:03:03;;;;;;;29.33;16.67;;;;;;;;;;4934195;28;20457;-77
2023/03/06 11:05:29;;;;;;;24.77;17.23;;;;;;;;;;4923342;28;20460;-78
2023/03/06 11:07:58;;;;;;;28.27;17.83;;;;;;;;;;4938397;28;20412;-76
2023/03/06 11:10:24;;;;;;;21.40;16.00;;;;;;;;;;4935213;28;20489;-74
2023/03/06 11:12:56;;;;;;;22.77;15.63;;;;;;;;;;4937795;29;20878;-78
2023/03/06 11:15:23;;;;;;;19.53;13.40;;;;;;;;;;4934943;28;20784;-76
2023/03/06 11:17:52;;;;;;;26.93;14.77;;;;;;;;;;4930786;28;20442;-76
2023/03/06 11:20:24;;;;;;;19.77;14.50;;;;;;;;;;4936005;28;20463;-76
2023/03/06 11:22:50;;;;;;;20.87;14.70;;;;;;;;;;4930756;28;20831;-78
2023/03/06 11:25:18;;;;;;;15.63;11.10;;;;;;;;;;4923815;29;20833;-77
2023/03/06 11:27:45;;;;;;;15.17;11.77;;;;;;;;;;4930916;28;20552;-77
2023/03/06 11:30:25;;;;;;;17.80;10.93;;;;;;;;;;4935236;28;20481;-76
2023/03/06 11:33:00;;;;;;;15.90;11.80;;;;;;;;;;4929609;28;20438;-78
2023/03/06 11:35:28;;;;;;;14.43;10.87;;;;;;;;;;4931319;28;20449;-78
2023/03/06 11:38:03;;;;;;;19.50;12.30;;;;;;;;;;4928456;28;20454;-75
2023/03/06 11:40:48;;;;;;;13.97;11.03;;;;;;;;;;4941006;29;20446;-77
2023/03/06 11:43:34;;;;;;;17.70;12.27;;;;;;;;;;4939356;28;20454;-77
2023/03/06 11:46:07;;;;;;;14.67;10.10;;;;;;;;;;4942730;28;20470;-77
2023/03/06 11:48:34;;;;;;;11.90;9.90;;;;;;;;;;4937386;28;20552;-78
2023/03/06 11:51:12;;;;;;;12.30;10.10;;;;;;;;;;4940238;28;20545;-77
2023/03/06 11:53:39;;;;;;;12.33;8.70;;;;;;;;;;4912321;29;20454;-78
2023/03/06 11:56:21;;;;;;;11.67;9.17;;;;;;;;;;4941891;29;20442;-79
2023/03/06 11:58:53;;;;;;;14.13;10.50;;;;;;;;;;4936079;28;20508;-77
2023/03/06 12:01:27;;;;;;;13.77;10.37;;;;;;;;;;4938747;29;20514;-78
2023/03/06 12:04:11;;;;;;;12.13;10.10;;;;;;;;;;4938002;28;20671;-77
2023/03/06 12:06:40;;;;;;;12.50;9.60;;;;;;;;;;4940171;29;20454;-78
2023/03/06 12:09:19;;;;;;;10.27;9.10;;;;;;;;;;4939519;28;20517;-77
2023/03/06 12:11:48;;;;;;;12.47;10.43;;;;;;;;;;4940278;28;20474;-77
2023/03/06 12:14:14;;;;;;;14.97;10.37;;;;;;;;;;4940582;28;20744;-77
2023/03/06 12:16:46;;;;;;;13.43;10.90;;;;;;;;;;4939218;28;20453;-77
2023/03/06 12:19:21;;;;;;;11.30;9.57;;;;;;;;;;4924894;29;20865;-78
2023/03/06 12:22:05;;;;;;;16.33;12.83;;;;;;;;;;4937394;28;20452;-78
2023/03/06 12:24:37;;;;;;;14.17;12.37;;;;;;;;;;4936363;28;20581;-78
2023/03/06 12:27:06;;;;;;;16.13;11.20;;;;;;;;;;4909667;29;20481;-77
2023/03/06 12:29:32;;;;;;;14.90;13.30;;;;;;;;;;4940066;28;20441;-78
2023/03/06 12:32:15;;;;;;;15.10;11.87;;;;;;;;;;4939340;28;20973;-78
2023/03/06 12:34:44;;;;;;;12.17;10.80;;;;;;;;;;4941444;28;20509;-77
2023/03/06 12:37:29;;;;;;;13.60;11.10;;;;;;;;;;4937207;28;20468;-77
2023/03/06 12:40:18;;;;;;;10.03;8.47;;;;;;;;;;4941569;29;20422;-78
2023/03/06 12:43:03;;;;;;;14.30;10.50;;;;;;;;;;4938162;28;20457;-77
2023/03/06 12:45:38;;;;;;;11.00;9.20;;;;;;;;;;4937518;28;20528;-77
2023/03/06 12:48:09;;;;;;;8.03;7.30;;;;;;;;;;4920808;29;20800;-77
2023/03/06 12:50:35;;;;;;;9.33;8.17;;;;;;;;;;4943179;29;20462;-76
2023/03/06 12:53:12;;;;;;;12.70;7.97;;;;;;;;;;4939010;29;20723;-77
2023/03/06 12:55:40;;;;;;;7.00;6.40;;;;;;;;;;4942978;29;20437;-77
2023/03/06 12:58:25;;;;;;;5.90;5.40;;;;;;;;;;4937446;29;20532;-78
2023/03/06 13:00:57;;;;;;;5.10;4.80;;;;;;;;;;4940195;28;20477;-76
2023/03/06 13:03:35;;;;;;;5.30;4.93;;;;;;;;;;4938485;29;20485;-77
2023/03/06 13:06:19;;;;;;;6.03;5.60;;;;;;;;;;4942178;28;21261;-77
2023/03/06 13:08:54;;;;;;;7.20;6.50;;;;;;;;;;4934421;28;20870;-76
2023/03/06 13:11:39;;;;;;;7.70;6.43;;;;;;;;;;4942084;29;20469;-78
2023/03/06 13:14:27;;;;;;;5.37;5.07;;;;;;;;;;4936788;28;20437;-78
2023/03/06 13:17:15;;;;;;;5.53;5.13;;;;;;;;;;4941224;28;20425;-77
2023/03/06 13:19:41;;;;;;;5.67;5.27;;;;;;;;;;4921434;29;20528;-77
2023/03/06 13:22:13;;;;;;;6.90;6.30;;;;;;;;;;4942967;29;20533;-77
2023/03/06 13:24:42;;;;;;;6.03;5.30;;;;;;;;;;4940318;28;20436;-77
2023/03/06 13:27:09;;;;;;;4.73;4.30;;;;;;;;;;4944369;29;20448;-77
2023/03/06 13:29:35;;;;;;;4.80;4.37;;;;;;;;;;4938836;28;20988;-78
2023/03/06 13:32:01;;;;;;;5.40;4.27;;;;;;;;;;4943295;28;20474;-80
2023/03/06 13:34:32;;;;;;;4.40;3.80;;;;;;;;;;4933607;28;20525;-79
2023/03/06 13:37:22;;;;;;;3.30;3.10;;;;;;;;;;4943863;28;20450;-80
2023/03/06 13:40:02;;;;;;;2.83;2.73;;;;;;;;;;4941473;28;20440;-76
2023/03/06 13:42:34;;;;;;;3.40;2.90;;;;;;;;;;4943418;28;20414;-78
2023/03/06 13:45:20;;;;;;;3.90;3.60;;;;;;;;;;4940603;28;20426;-77
2023/03/06 13:47:49;;;;;;;5.33;4.97;;;;;;;;;;4915543;29;20425;-76
2023/03/06 13:50:34;;;;;;;6.73;6.13;;;;;;;;;;4946000;29;20476;-79
2023/03/06 13:53:18;;;;;;;8.13;7.33;;;;;;;;;;4942330;28;21337;-79
2023/03/06 13:56:03;;;;;;;10.90;8.50;;;;;;;;;;4942947;28;20515;-78
2023/03/06 13:58:48;;;;;;;8.80;8.00;;;;;;;;;;4920631;29;20585;-76
2023/03/06 14:01:46;;;;;;;11.23;9.50;;;;;;;;;;4938728;28;20451;-81
2023/03/06 14:04:18;;;;;;;14.60;8.23;;;;;;;;;;4888505;28;20560;-79
2023/03/06 14:07:03;;;;;;;9.33;8.37;;;;;;;;;;4934235;28;20784;-80
2023/03/06 14:09:34;;;;;;;11.33;10.10;;;;;;;;;;4944199;28;20957;-79
2023/03/06 14:12:05;;;;;;;10.00;7.77;;;;;;;;;;4936545;29;20473;-79
2023/03/06 14:14:38;;;;;;;14.07;11.03;;;;;;;;;;4943549;28;20771;-79
2023/03/06 14:17:04;;;;;;;10.80;9.70;;;;;;;;;;4932892;29;20966;-79
2023/03/06 14:19:32;;;;;;;11.27;10.17;;;;;;;;;;4941066;29;20478;-79
2023/03/06 14:21:58;;;;;;;12.00;10.33;;;;;;;;;;4924709;29;20969;-79
2023/03/06 14:24:36;;;;;;;14.23;9.43;;;;;;;;;;4947995;28;20437;-79
2023/03/06 14:27:02;;;;;;;10.73;8.60;;;;;;;;;;4936250;28;20438;-79
2023/03/06 14:29:29;;;;;;;11.80;7.60;;;;;;;;;;4947711;29;20528;-79
2023/03/06 14:31:57;;;;;;;13.40;7.70;;;;;;;;;;4933191;28;20789;-78